الصفحة الرئيسية
METAR-TAF:

METAR-TAF

مطار :

Katherine, أستراليا

دائرة عرض: 14-26S, خط طول: 132-16E, ارتفاع: 108 متر

مراقبة الطقس الحالي

تاريخ ووقت الإصدار 37 دقيقة قبل الساعة 03:30UTC
ريح 8 عقدة من الشرق
درجة الحرارة 30°درجة مئوية
الرطوبة 29%
ضغط 1014 hPa
الرؤية 10 كم أو أكثر

METAR: YPTN 270330Z AUTO 10008KT 9999 // NCD 30/10 Q1014 RF00.0/000.0

زمن: 13:37 (04:07 UTC)

توقعات

تاريخ ووقت الإصدار 5ساعات و 4 دقيقة قبل الساعة 23:03UTC
التوقعات صالحة من27 الساعة 00 UTC إلى 28 الساعة 00 UTC
ريح 10 عقدة من الشرق/الجنوب الشرقي
الرؤية 10 كم أو أكثر
الغيوم لا تقل 1500 م ولا وجود لمزنة ركامية السحاب الأسود

TAF: YPTN 262303Z 2700/2800 11010KT CAVOK

أرصاد الطقس والتوقعات من أكثر من 4000 مطار (تقارير الطقس للمطار METAR والتنبؤ بالطقس بالمطارTAF).

المحطات المتاحة هي النقط الصفراء والحمراء على الخريطة.

حرك المؤشر فوق النقطة لمعرفة اسم المحطة.

ثم انقر لمعرفة أرصاد وتوقعات الطقس.

لتغيير الخارطة: اضغط على الأزرار الخضراء مع رمز الصليب الأسود للتكبير. على الزر الأخضر مع شرطة للتصغير، أو على الأسهم الخضراء للخرائط المجاورة.


METAR-TAF: